Time;durP1;ratioP1;P1;durP2;ratioP2;P2;SDS_P1;SDS_P2;PMS_P1;PMS_P2;Temp;Humidity;BMP_temperature;BMP_pressure;BME280_temperature;BME280_humidity;BME280_pressure;Samples;Min_cycle;Max_cycle;Signal;HPM_P1;HPM_P2
2023/12/14 00:03:48;;;;;;;62.23;28.30;;;;;;;3.32;100.00;99756.73;4950921;57;1138789;-79
2023/12/14 00:08:53;;;;;;;66.17;29.73;;;;;;;3.32;100.00;99763.73;4969960;58;1138831;-80
2023/12/14 00:13:59;;;;;;;66.43;27.00;;;;;;;3.27;100.00;99764.00;4957891;57;1138952;-80
2023/12/14 00:19:04;;;;;;;60.23;26.27;;;;;;;3.27;100.00;99775.77;5017318;57;1139085;-79
2023/12/14 00:24:10;;;;;;;54.18;22.45;;;;;;;3.23;100.00;99775.56;5041038;57;1138559;-79
2023/12/14 00:29:15;;;;;;;53.20;22.73;;;;;;;3.22;100.00;99781.72;4906865;57;1138900;-80
2023/12/14 00:34:21;;;;;;;48.52;21.60;;;;;;;3.19;100.00;99784.53;4868936;59;1138674;-80
2023/12/14 00:39:26;;;;;;;50.93;21.77;;;;;;;3.15;100.00;99781.72;4870846;58;1138697;-79
2023/12/14 00:44:32;;;;;;;51.45;20.80;;;;;;;3.15;100.00;99785.17;4844746;57;1138645;-81
2023/12/14 00:49:37;;;;;;;41.75;19.87;;;;;;;3.13;100.00;99788.80;4927068;58;1138700;-79
2023/12/14 00:54:43;;;;;;;48.00;20.73;;;;;;;3.10;100.00;99787.20;4986901;58;1138458;-80
2023/12/14 00:59:49;;;;;;;43.17;17.97;;;;;;;3.05;100.00;99801.48;4969103;58;1139015;-81
2023/12/14 01:04:54;;;;;;;41.03;19.07;;;;;;;3.05;100.00;99797.56;4907968;58;1138615;-80
2023/12/14 01:10:00;;;;;;;44.77;20.10;;;;;;;3.06;100.00;99809.67;4907345;58;1138449;-79
2023/12/14 01:15:07;;;;;;;41.40;19.63;;;;;;;3.02;100.00;99827.31;4951412;58;1138581;-80
2023/12/14 01:20:12;;;;;;;41.00;18.07;;;;;;;3.04;100.00;99828.53;5007130;58;1138584;-80
2023/12/14 01:25:18;;;;;;;40.63;17.83;;;;;;;3.06;100.00;99828.80;4958323;58;1139036;-79
2023/12/14 01:30:24;;;;;;;37.43;18.40;;;;;;;3.07;100.00;99830.48;4903747;59;1139091;-79
2023/12/14 01:35:29;;;;;;;42.00;19.32;;;;;;;3.09;100.00;99836.47;4963793;58;1140961;-80
2023/12/14 01:40:35;;;;;;;37.37;18.30;;;;;;;3.17;100.00;99839.49;5063301;56;1140975;-79
2023/12/14 01:45:40;;;;;;;36.70;18.23;;;;;;;3.13;100.00;99841.05;5059194;56;1138663;-79
2023/12/14 01:50:46;;;;;;;43.13;18.73;;;;;;;3.08;100.00;99841.77;5030012;57;1138805;-80
2023/12/14 01:55:52;;;;;;;42.80;18.37;;;;;;;3.00;100.00;99833.55;5010403;56;1138654;-79
2023/12/14 02:01:11;;;;;;;39.57;19.00;;;;;;;3.00;100.00;99842.23;5017695;56;1138723;-79
2023/12/14 02:06:17;;;;;;;42.15;17.15;;;;;;;2.99;100.00;99842.31;5090533;56;1138599;-80
2023/12/14 02:11:23;;;;;;;42.67;20.12;;;;;;;2.98;100.00;99844.08;5099699;56;1138843;-80
2023/12/14 02:16:28;;;;;;;36.50;18.27;;;;;;;2.96;100.00;99849.86;5093219;56;1138821;-80
2023/12/14 02:21:34;;;;;;;35.57;16.33;;;;;;;2.94;100.00;99851.71;5092368;56;1138803;-80
2023/12/14 02:26:39;;;;;;;41.20;16.67;;;;;;;2.94;100.00;99851.71;5061789;56;1138701;-79
2023/12/14 02:31:45;;;;;;;35.23;16.30;;;;;;;2.96;100.00;99846.41;4871003;58;1140861;-79
2023/12/14 02:36:51;;;;;;;41.73;18.40;;;;;;;2.93;100.00;99846.57;5085254;56;1138922;-79
2023/12/14 02:41:56;;;;;;;41.00;19.07;;;;;;;2.89;100.00;99858.98;5088600;56;1139023;-79
2023/12/14 02:47:02;;;;;;;36.07;17.70;;;;;;;2.87;100.00;99858.23;4835442;58;1138860;-79
2023/12/14 02:52:07;;;;;;;36.68;17.25;;;;;;;2.90;100.00;99870.28;5045175;56;1138634;-80
2023/12/14 02:57:13;;;;;;;38.08;18.12;;;;;;;2.88;100.00;99882.11;5093203;56;1138571;-80
2023/12/14 03:02:18;;;;;;;23.50;12.03;;;;;;;2.85;100.00;99887.50;5112730;56;1138497;-80
2023/12/14 03:07:24;;;;;;;35.33;17.80;;;;;;;2.82;100.00;99890.27;5093220;56;1138651;-80
2023/12/14 03:12:29;;;;;;;33.40;15.83;;;;;;;2.81;100.00;99896.42;5093177;56;1138966;-80
2023/12/14 03:17:35;;;;;;;41.07;19.33;;;;;;;2.87;100.00;99902.63;5111722;57;1140883;-80
2023/12/14 03:22:41;;;;;;;38.07;18.40;;;;;;;2.87;100.00;99907.84;5061148;57;1138542;-80
2023/12/14 03:27:46;;;;;;;37.20;18.57;;;;;;;2.85;100.00;99920.14;4995674;57;1138744;-80
2023/12/14 03:32:52;;;;;;;36.17;18.03;;;;;;;2.83;100.00;99921.53;5010661;57;1138985;-79
2023/12/14 03:37:57;;;;;;;42.27;18.57;;;;;;;2.82;100.00;99928.14;5037140;57;1138571;-80
2023/12/14 03:43:04;;;;;;;35.87;16.63;;;;;;;2.87;100.00;99932.66;5059918;57;1139021;-80
2023/12/14 03:48:09;;;;;;;32.30;16.47;;;;;;;2.87;100.00;99944.88;5002966;57;1141092;-79
2023/12/14 03:53:15;;;;;;;30.90;17.13;;;;;;;2.83;100.00;99950.72;4862736;59;1140598;-80
2023/12/14 03:58:20;;;;;;;34.47;16.63;;;;;;;2.81;100.00;99955.17;4789338;59;1138520;-80
2023/12/14 04:03:26;;;;;;;29.70;16.20;;;;;;;2.76;100.00;99963.25;5047762;57;1138676;-81
2023/12/14 04:08:32;;;;;;;34.37;16.77;;;;;;;2.75;100.00;99976.42;5102677;57;1138932;-80
2023/12/14 04:13:39;;;;;;;29.18;14.95;;;;;;;2.72;100.00;99977.42;5083029;57;1138731;-79
2023/12/14 04:18:44;;;;;;;31.07;15.33;;;;;;;2.73;100.00;99981.72;5082691;57;1138677;-79
2023/12/14 04:23:50;;;;;;;27.83;14.73;;;;;;;2.73;100.00;99984.33;5098501;56;1138631;-80
2023/12/14 04:28:56;;;;;;;32.87;15.33;;;;;;;2.74;100.00;99984.72;5090635;57;1138555;-81
2023/12/14 04:34:02;;;;;;;29.63;14.00;;;;;;;2.68;100.00;99978.97;5062050;57;1138766;-80
2023/12/14 04:39:07;;;;;;;28.87;14.77;;;;;;;2.61;100.00;99987.58;4936173;57;1138933;-80
2023/12/14 04:44:13;;;;;;;26.60;14.10;;;;;;;2.57;100.00;99985.23;4885409;59;1139246;-81
2023/12/14 04:49:20;;;;;;;28.15;14.80;;;;;;;2.48;100.00;99981.33;4876326;58;1138888;-81
2023/12/14 04:54:26;;;;;;;25.37;13.93;;;;;;;2.48;100.00;99984.78;4818773;57;1139052;-78
2023/12/14 04:59:32;;;;;;;24.60;13.08;;;;;;;2.47;100.00;99984.86;4881408;58;1138945;-81
2023/12/14 05:04:37;;;;;;;28.83;15.17;;;;;;;2.53;100.00;99984.55;4906941;58;1139010;-81
2023/12/14 05:09:43;;;;;;;27.27;15.13;;;;;;;2.59;100.00;99989.45;4906157;58;1140852;-81
2023/12/14 05:14:49;;;;;;;31.90;15.80;;;;;;;2.63;100.00;99997.94;4925118;58;1138688;-80
2023/12/14 05:19:54;;;;;;;28.40;16.03;;;;;;;2.61;100.00;100006.31;4905973;58;1138755;-80
2023/12/14 05:25:00;;;;;;;35.60;15.97;;;;;;;2.58;100.00;100014.33;4847071;57;1140769;-81
2023/12/14 05:30:08;;;;;;;28.13;14.57;;;;;;;2.57;100.00;100021.31;4791413;59;1141049;-80
2023/12/14 05:35:14;;;;;;;24.23;13.65;;;;;;;2.58;100.00;100035.21;5041766;57;1140985;-81
2023/12/14 05:40:19;;;;;;;26.37;13.87;;;;;;;2.60;100.00;100043.31;5030559;56;1140610;-81
2023/12/14 05:45:25;;;;;;;28.03;15.17;;;;;;;2.64;100.00;100049.23;4979369;57;1143122;-81
2023/12/14 05:50:31;;;;;;;33.07;15.80;;;;;;;2.50;100.00;100038.67;4994453;57;1140932;-81
2023/12/14 05:55:39;;;;;;;31.73;14.47;;;;;;;2.59;100.00;100072.14;5041025;56;1140848;-81
2023/12/14 06:00:44;;;;;;;29.37;15.13;;;;;;;2.57;100.00;100084.42;5017212;57;1140899;-80
2023/12/14 06:05:50;;;;;;;27.23;13.90;;;;;;;2.57;100.00;100091.80;5078880;56;1140919;-80
2023/12/14 06:10:56;;;;;;;26.27;13.07;;;;;;;2.60;100.00;100094.22;5059263;57;1140492;-81
2023/12/14 06:16:02;;;;;;;28.60;14.70;;;;;;;2.54;100.00;100106.30;4999503;57;1140665;-81
2023/12/14 06:21:12;;;;;;;29.50;14.40;;;;;;;2.52;100.00;100108.14;4820480;58;1140664;-81
2023/12/14 06:26:18;;;;;;;29.93;15.93;;;;;;;2.57;100.00;100118.36;4863232;58;1140862;-81
2023/12/14 06:31:23;;;;;;;30.80;16.27;;;;;;;2.56;100.00;100120.12;5063821;56;1140808;-81
2023/12/14 06:36:29;;;;;;;27.37;14.10;;;;;;;2.51;100.00;100127.80;5080606;56;1140737;-81
2023/12/14 06:41:35;;;;;;;31.25;16.90;;;;;;;2.47;100.00;100130.55;5061513;56;1141130;-81
2023/12/14 06:46:41;;;;;;;33.85;17.50;;;;;;;2.48;100.00;100140.08;5110068;56;1141072;-81
2023/12/14 06:51:46;;;;;;;29.83;16.47;;;;;;;2.57;100.00;100154.45;5139130;56;1140879;-81
2023/12/14 06:56:52;;;;;;;31.97;15.93;;;;;;;2.64;100.00;100153.66;5159771;56;1141011;-81
2023/12/14 07:01:58;;;;;;;35.55;16.95;;;;;;;2.70;100.00;100167.72;5126861;56;1141103;-81
2023/12/14 07:07:03;;;;;;;33.87;17.60;;;;;;;2.69;100.00;100181.69;5125355;56;1140835;-81
2023/12/14 07:12:11;;;;;;;29.10;16.40;;;;;;;2.65;100.00;100182.77;5125478;56;1140947;-78
2023/12/14 07:17:17;;;;;;;31.87;16.25;;;;;;;2.61;100.00;100191.66;5157816;56;1140620;-80
2023/12/14 07:22:23;;;;;;;28.60;14.80;;;;;;;2.58;100.00;100204.44;5139120;56;1140363;-80
2023/12/14 07:27:28;;;;;;;22.47;11.60;;;;;;;2.57;100.00;100202.74;5113917;56;1140461;-80
2023/12/14 07:32:34;;;;;;;20.12;12.55;;;;;;;2.57;100.00;100192.76;4974378;57;1140981;-81
2023/12/14 07:37:40;;;;;;;27.00;13.13;;;;;;;2.53;100.00;100193.83;4862644;59;1140939;-81
2023/12/14 07:42:46;;;;;;;21.53;13.17;;;;;;;2.61;100.00;100204.72;5022816;56;1140721;-80
2023/12/14 07:47:51;;;;;;;21.53;11.03;;;;;;;2.64;100.00;100215.86;5028748;58;1140780;-79
2023/12/14 07:52:57;;;;;;;15.47;9.70;;;;;;;2.61;100.00;100220.37;5008351;58;1141064;-81
2023/12/14 07:58:02;;;;;;;15.90;9.37;;;;;;;2.54;100.00;100213.79;5009763;58;1138655;-81
2023/12/14 08:03:08;;;;;;;19.13;10.97;;;;;;;2.59;100.00;100228.77;5008854;58;1138753;-81
2023/12/14 08:08:14;;;;;;;18.73;11.80;;;;;;;2.59;100.00;100243.13;5027844;57;1140641;-82
2023/12/14 08:13:19;;;;;;;25.17;14.97;;;;;;;2.64;100.00;100255.02;5008376;57;1140949;-81
2023/12/14 08:18:25;;;;;;;23.70;13.63;;;;;;;2.64;100.00;100257.63;5009379;57;1140851;-82
2023/12/14 08:23:30;;;;;;;26.77;15.67;;;;;;;2.65;100.00;100263.23;5028216;58;1140681;-82
2023/12/14 08:28:36;;;;;;;26.87;15.32;;;;;;;2.69;100.00;100282.22;5060318;57;1141047;-78
2023/12/14 08:33:44;;;;;;;19.37;12.37;;;;;;;2.71;100.00;100283.84;5092091;56;1140952;-78
2023/12/14 08:38:50;;;;;;;23.03;13.00;;;;;;;2.75;100.00;100300.20;5111661;57;1140860;-78
2023/12/14 08:43:56;;;;;;;20.73;13.10;;;;;;;2.79;100.00;100310.41;5080310;57;1140694;-78
2023/12/14 08:49:01;;;;;;;37.70;18.40;;;;;;;2.81;100.00;100318.17;5009040;58;1141147;-79
2023/12/14 08:54:08;;;;;;;22.73;12.20;;;;;;;2.80;100.00;100321.70;5009718;58;1140786;-81
2023/12/14 08:59:13;;;;;;;21.17;12.77;;;;;;;2.71;100.00;100341.74;5028207;57;1141076;-78
2023/12/14 09:04:20;;;;;;;24.23;12.73;;;;;;;2.66;100.00;100345.87;5009257;57;1140953;-80
2023/12/14 09:09:26;;;;;;;25.60;14.35;;;;;;;2.68;100.00;100363.63;5008588;57;1140837;-79
2023/12/14 09:14:32;;;;;;;26.83;14.30;;;;;;;2.67;100.00;100366.30;5029036;57;1141144;-81
2023/12/14 09:19:37;;;;;;;23.15;12.82;;;;;;;2.66;100.00;100378.51;5009280;57;1140760;-81
2023/12/14 09:24:43;;;;;;;21.45;12.43;;;;;;;2.72;100.00;100382.14;5057666;57;1140850;-81
2023/12/14 09:29:48;;;;;;;18.60;11.00;;;;;;;2.79;100.00;100395.73;5113428;57;1140943;-79
2023/12/14 09:34:56;;;;;;;19.90;12.83;;;;;;;2.82;100.00;100398.21;5017135;57;1140804;-79
2023/12/14 09:40:02;;;;;;;26.27;13.83;;;;;;;2.83;100.00;100401.22;4977155;57;1140939;-82
2023/12/14 09:45:12;;;;;;;20.33;12.47;;;;;;;2.80;100.00;100398.28;4976993;57;1141170;-80
2023/12/14 09:50:18;;;;;;;33.17;14.43;;;;;;;2.77;100.00;100399.73;4997432;58;1140945;-81
2023/12/14 09:55:24;;;;;;;25.77;14.50;;;;;;;2.83;100.00;100414.27;4977722;58;1141082;-81
2023/12/14 10:00:38;;;;;;;18.27;11.50;;;;;;;2.85;100.00;100412.90;5020471;57;1141044;-82
2023/12/14 10:05:44;;;;;;;24.80;14.83;;;;;;;2.87;100.00;100416.28;5066780;57;1141031;-80
2023/12/14 10:10:52;;;;;;;30.83;15.43;;;;;;;2.90;100.00;100414.38;5059395;57;1140955;-82
2023/12/14 10:15:58;;;;;;;19.93;12.13;;;;;;;3.00;100.00;100412.16;5059164;57;1143079;-83
2023/12/14 10:21:06;;;;;;;19.80;11.53;;;;;;;3.01;100.00;100408.17;5078789;56;1140926;-83
2023/12/14 10:26:12;;;;;;;18.77;11.80;;;;;;;2.97;100.00;100407.92;5058318;57;1140925;-80
2023/12/14 10:31:18;;;;;;;14.45;8.50;;;;;;;2.96;100.00;100412.77;5060317;57;1140625;-79
2023/12/14 10:36:27;;;;;;;19.97;10.70;;;;;;;2.94;100.00;100416.36;5037369;56;1138870;-81
2023/12/14 10:41:34;;;;;;;19.53;11.00;;;;;;;2.95;100.00;100420.67;4871659;59;1140886;-82
2023/12/14 10:46:41;;;;;;;18.65;10.40;;;;;;;3.01;100.00;100440.83;5067034;57;1141258;-81
2023/12/14 10:51:47;;;;;;;21.93;11.60;;;;;;;3.05;100.00;100435.86;5112492;57;1141012;-81
2023/12/14 10:56:58;;;;;;;27.27;15.13;;;;;;;3.01;100.00;100443.45;5092397;57;1140858;-79
2023/12/14 11:02:11;;;;;;;19.33;10.67;;;;;;;2.97;100.00;100442.34;5092670;56;1141145;-81
2023/12/14 11:07:16;;;;;;;;;;;;;;;2.95;100.00;100447.64;5096169;57;1140875;-82
2023/12/14 11:12:23;;;;;;;23.00;11.60;;;;;;;2.97;100.00;100443.20;5129542;56;973951;-80
2023/12/14 11:17:29;;;;;;;23.00;12.53;;;;;;;3.00;100.00;100456.12;5037833;57;1140542;-80
2023/12/14 11:22:35;;;;;;;22.30;12.00;;;;;;;3.03;100.00;100472.11;5009804;56;1140769;-80
2023/12/14 11:27:45;;;;;;;27.87;15.37;;;;;;;3.00;100.00;100486.16;5097723;56;1140782;-82
2023/12/14 11:32:51;;;;;;;23.73;11.70;;;;;;;2.98;100.00;100500.21;4976539;57;1140878;-81
2023/12/14 11:38:02;;;;;;;20.00;10.60;;;;;;;2.97;100.00;100496.75;4960266;58;1140939;-82
2023/12/14 11:43:09;;;;;;;15.88;9.15;;;;;;;3.02;100.00;100502.62;5053677;56;1140876;-80
2023/12/14 11:48:15;;;;;;;21.53;10.37;;;;;;;3.00;100.00;100510.98;5134064;56;1138954;-79
2023/12/14 11:53:20;;;;;;;19.83;10.47;;;;;;;2.95;100.00;100517.33;5118257;56;1140821;-81
2023/12/14 11:58:27;;;;;;;22.60;11.23;;;;;;;2.94;100.00;100516.48;5125194;56;1140789;-82
2023/12/14 12:03:34;;;;;;;18.20;10.47;;;;;;;2.95;100.00;100510.80;5126026;56;1140904;-80
2023/12/14 12:08:43;;;;;;;15.65;9.95;;;;;;;2.95;100.00;100518.17;5125320;56;1140641;-81
2023/12/14 12:13:54;;;;;;;16.20;10.07;;;;;;;2.92;100.00;100524.84;5124226;56;1138864;-80
2023/12/14 12:19:00;;;;;;;18.57;8.47;;;;;;;2.88;100.00;100533.75;5144881;56;1140832;-82
2023/12/14 12:24:06;;;;;;;24.40;11.07;;;;;;;2.83;100.00;100562.69;5121397;56;1138914;-80
2023/12/14 12:29:11;;;;;;;14.97;8.77;;;;;;;2.84;100.00;100554.39;5040886;57;1140711;-79
2023/12/14 12:34:17;;;;;;;22.65;10.40;;;;;;;2.85;100.00;100555.24;5100722;56;1139080;-81
2023/12/14 12:39:22;;;;;;;15.53;8.57;;;;;;;2.80;100.00;100565.89;5091405;56;1141601;-79
2023/12/14 12:44:28;;;;;;;23.73;10.93;;;;;;;2.80;100.00;100568.50;5019773;57;1139113;-81
2023/12/14 12:49:33;;;;;;;23.60;12.60;;;;;;;2.83;100.00;100570.98;4971526;57;1141698;-79
2023/12/14 12:54:39;;;;;;;32.10;17.47;;;;;;;2.80;100.00;100575.87;5016524;57;1140991;-69
2023/12/14 12:59:45;;;;;;;24.80;11.43;;;;;;;2.76;100.00;100581.30;4984347;56;1140844;-77
2023/12/14 13:04:51;;;;;;;59.53;26.93;;;;;;;2.77;100.00;100581.69;4963838;56;1141005;-81
2023/12/14 13:09:57;;;;;;;52.07;23.10;;;;;;;2.76;100.00;100589.98;4999093;56;1140682;-80
2023/12/14 13:15:02;;;;;;;40.70;17.60;;;;;;;2.76;100.00;100595.66;4977427;57;1179856;-80
2023/12/14 13:20:09;;;;;;;37.33;17.33;;;;;;;2.73;100.00;100595.82;4985481;57;1140870;-80
2023/12/14 13:25:16;;;;;;;35.03;18.80;;;;;;;2.68;100.00;100593.41;4991996;57;1140987;-79
2023/12/14 13:30:22;;;;;;;46.23;23.03;;;;;;;2.65;100.00;100594.83;5049772;57;1141020;-80
2023/12/14 13:35:28;;;;;;;37.25;18.02;;;;;;;2.64;100.00;100619.70;4907677;58;1141019;-81
2023/12/14 13:40:34;;;;;;;41.25;19.62;;;;;;;2.67;100.00;100632.17;4854260;59;1141266;-81
2023/12/14 13:45:41;;;;;;;65.80;25.13;;;;;;;2.69;100.00;100639.95;4863005;59;1141057;-79
2023/12/14 13:50:47;;;;;;;42.00;15.08;;;;;;;2.67;100.00;100648.30;5024560;56;1141018;-78
2023/12/14 13:55:53;;;;;;;34.73;15.63;;;;;;;2.61;100.00;100658.99;5031511;56;1141436;-82
2023/12/14 14:00:58;;;;;;;22.50;11.77;;;;;;;2.61;100.00;100673.35;5045198;56;1141012;-80
2023/12/14 14:06:05;;;;;;;195.07;92.27;;;;;;;2.63;100.00;100674.14;4840805;58;1141451;-79
2023/12/14 14:11:12;;;;;;;151.57;99.40;;;;;;;2.60;100.00;100684.74;4792041;60;1143260;-79
2023/12/14 14:16:17;;;;;;;39.05;25.62;;;;;;;2.56;100.00;100684.02;4819403;58;1143352;-78
2023/12/14 14:21:23;;;;;;;60.13;35.30;;;;;;;2.58;100.00;100703.53;4826523;58;1140956;-76
2023/12/14 14:26:29;;;;;;;46.23;25.80;;;;;;;2.59;100.00;100707.39;4872728;58;1140803;-81
2023/12/14 14:31:34;;;;;;;41.17;18.97;;;;;;;2.55;100.00;100705.81;4901955;58;1140794;-79
2023/12/14 14:36:40;;;;;;;44.43;19.10;;;;;;;2.51;100.00;100726.88;4861786;58;1141120;-79
2023/12/14 14:41:45;;;;;;;40.17;18.40;;;;;;;2.43;100.00;100730.66;5021517;56;1140921;-79
2023/12/14 14:46:51;;;;;;;63.07;26.77;;;;;;;2.34;100.00;100748.44;4960338;56;1141082;-79
2023/12/14 14:51:57;;;;;;;41.10;17.93;;;;;;;2.33;100.00;100768.92;4905307;58;1141191;-79
2023/12/14 14:57:04;;;;;;;51.37;21.07;;;;;;;2.34;100.00;100768.86;4926776;57;1140865;-80
2023/12/14 15:02:10;;;;;;;48.13;21.37;;;;;;;2.31;100.00;100787.70;5032594;56;1140903;-80
2023/12/14 15:07:16;;;;;;;63.20;25.63;;;;;;;2.26;100.00;100787.91;4833720;59;1141174;-80
2023/12/14 15:12:21;;;;;;;50.00;22.07;;;;;;;2.25;100.00;100792.73;4925425;57;1140934;-80
2023/12/14 15:17:28;;;;;;;46.25;20.92;;;;;;;2.22;100.00;100793.29;4879924;57;1141046;-80
2023/12/14 15:22:33;;;;;;;40.17;16.70;;;;;;;2.22;100.00;100801.12;4820138;58;1150282;-72
2023/12/14 15:27:39;;;;;;;32.20;15.70;;;;;;;2.19;100.00;100806.00;4878083;58;1140797;-72
2023/12/14 15:32:44;;;;;;;32.63;14.70;;;;;;;2.16;100.00;100816.55;4865279;58;1140889;-72
2023/12/14 15:37:50;;;;;;;23.10;13.62;;;;;;;2.13;100.00;100824.52;4903723;57;1140810;-70
2023/12/14 15:42:56;;;;;;;35.37;14.77;;;;;;;2.12;100.00;100837.16;5089907;56;1141695;-70
2023/12/14 15:48:04;;;;;;;45.07;20.70;;;;;;;2.11;100.00;100849.36;4990449;56;1140823;-72
2023/12/14 15:53:10;;;;;;;42.43;18.70;;;;;;;2.09;100.00;100861.59;4969506;56;1140751;-80
2023/12/14 15:58:16;;;;;;;63.10;28.43;;;;;;;2.04;100.00;100870.49;4970814;56;1146976;-79
2023/12/14 16:03:21;;;;;;;53.97;23.63;;;;;;;2.01;100.00;100874.52;5061167;57;1140794;-81
2023/12/14 16:08:27;;;;;;;60.47;24.13;;;;;;;2.01;100.00;100869.30;5037903;57;1140854;-80
2023/12/14 16:13:33;;;;;;;54.90;18.60;;;;;;;2.00;100.00;100886.70;4997164;56;1141145;-78
2023/12/14 16:18:39;;;;;;;38.50;15.57;;;;;;;2.00;100.00;100888.46;5070805;57;1140812;-70
2023/12/14 16:23:44;;;;;;;37.88;15.55;;;;;;;1.99;100.00;100894.58;5024155;56;1141011;-81
2023/12/14 16:28:50;;;;;;;61.10;20.40;;;;;;;2.01;100.00;100900.59;4955500;58;1140954;-78
2023/12/14 16:33:56;;;;;;;46.27;20.07;;;;;;;2.05;100.00;100906.11;4946223;58;1141047;-81
2023/12/14 16:39:02;;;;;;;49.23;21.17;;;;;;;2.02;100.00;100921.41;4835797;59;1140965;-79
2023/12/14 16:44:08;;;;;;;61.37;23.10;;;;;;;1.96;100.00;100926.02;4826238;58;1141086;-79
2023/12/14 16:49:14;;;;;;;65.60;24.37;;;;;;;1.94;100.00;100925.22;4999535;57;1140590;-80
2023/12/14 16:54:19;;;;;;;68.20;27.00;;;;;;;1.88;100.00;100935.85;5020637;57;1140924;-81
2023/12/14 16:59:25;;;;;;;75.57;30.77;;;;;;;1.89;100.00;100943.62;5069268;56;1140826;-79
2023/12/14 17:04:30;;;;;;;102.40;38.97;;;;;;;1.90;100.00;100951.85;5036549;56;1141251;-80
2023/12/14 17:09:36;;;;;;;77.53;33.97;;;;;;;1.94;100.00;100959.13;5077840;57;1143562;-82
2023/12/14 17:14:42;;;;;;;64.10;24.23;;;;;;;1.90;100.00;100971.87;5031940;56;1140866;-82
2023/12/14 17:19:48;;;;;;;62.97;27.53;;;;;;;1.85;100.00;100986.36;5007493;56;1141049;-77
2023/12/14 17:24:53;;;;;;;58.63;24.57;;;;;;;1.85;100.00;100987.66;5048248;57;1141038;-82
2023/12/14 17:29:59;;;;;;;48.90;19.93;;;;;;;1.80;100.00;100993.51;4957714;58;1141253;-77
2023/12/14 17:35:05;;;;;;;40.12;17.87;;;;;;;1.88;100.00;100994.53;4783688;59;1141109;-79
2023/12/14 17:40:11;;;;;;;57.90;21.45;;;;;;;1.94;100.00;101000.86;4999582;57;1140783;-80
2023/12/14 17:45:17;;;;;;;167.85;65.78;;;;;;;1.96;100.00;101004.27;4940467;57;1141059;-85
2023/12/14 17:50:23;;;;;;;152.02;62.08;;;;;;;1.93;100.00;101007.83;5071803;56;1142926;-81
2023/12/14 17:55:28;;;;;;;146.00;51.70;;;;;;;1.85;100.00;101022.02;5024896;56;1245786;-80
2023/12/14 18:00:34;;;;;;;120.20;45.17;;;;;;;1.79;100.00;101030.92;5025736;56;1142967;-84
2023/12/14 18:05:40;;;;;;;93.97;36.17;;;;;;;1.78;100.00;101037.48;5005052;57;1142728;-82
2023/12/14 18:10:46;;;;;;;101.40;42.13;;;;;;;1.81;100.00;101056.95;4873278;59;1141079;-80
2023/12/14 18:15:51;;;;;;;97.90;39.07;;;;;;;1.79;100.00;101059.61;5111568;56;1142916;-80
2023/12/14 18:20:57;;;;;;;103.70;46.77;;;;;;;1.75;100.00;101069.72;5093381;56;1141060;-79
2023/12/14 18:26:03;;;;;;;126.00;50.90;;;;;;;1.58;100.00;101077.23;5067466;56;1142790;-80
2023/12/14 18:31:10;;;;;;;124.93;52.27;;;;;;;1.36;100.00;101085.73;5043660;56;1142893;-79
2023/12/14 18:36:16;;;;;;;117.57;51.93;;;;;;;1.33;100.00;101094.09;5029246;58;1143128;-83
2023/12/14 18:41:21;;;;;;;116.03;49.88;;;;;;;1.30;100.00;101104.59;5012810;57;1143153;-80
2023/12/14 18:46:27;;;;;;;103.05;44.85;;;;;;;1.26;100.00;101118.16;5004988;57;1143055;-82
2023/12/14 18:51:32;;;;;;;99.40;41.80;;;;;;;1.26;100.00;101123.38;4848061;59;1143297;-81
2023/12/14 18:56:38;;;;;;;58.40;24.23;;;;;;;1.17;100.00;101131.92;5014642;56;1140989;-79
2023/12/14 19:01:44;;;;;;;43.23;18.47;;;;;;;0.92;100.00;101144.32;5008770;57;1140760;-81
2023/12/14 19:06:49;;;;;;;50.17;21.37;;;;;;;0.87;100.00;101155.34;5007092;56;1141007;-83
2023/12/14 19:11:55;;;;;;;70.90;29.90;;;;;;;0.92;100.00;101168.20;5059202;56;1140918;-81
2023/12/14 19:17:01;;;;;;;84.67;30.13;;;;;;;0.88;100.00;101175.27;5058378;56;1140926;-81
2023/12/14 19:22:06;;;;;;;114.47;41.40;;;;;;;0.88;100.00;101177.88;5079644;57;1140871;-81
2023/12/14 19:27:13;;;;;;;124.24;46.38;;;;;;;0.92;100.00;101197.70;5076115;57;1142940;-84
2023/12/14 19:32:19;;;;;;;124.42;45.60;;;;;;;0.92;100.00;101197.70;5024980;57;1143230;-79
2023/12/14 19:37:25;;;;;;;107.00;40.13;;;;;;;0.84;100.00;101213.14;4900033;59;1142981;-85
2023/12/14 19:42:32;;;;;;;114.23;43.60;;;;;;;0.84;100.00;101220.51;4999558;57;1143205;-81
2023/12/14 19:47:40;;;;;;;118.93;42.23;;;;;;;0.75;100.00;101199.94;5040875;57;1143313;-82
2023/12/14 19:52:46;;;;;;;110.20;40.80;;;;;;;0.87;100.00;101228.25;5033340;57;1142872;-82
2023/12/14 19:57:51;;;;;;;127.53;56.73;;;;;;;0.87;100.00;101232.59;5029543;57;1143077;-81
2023/12/14 20:02:57;;;;;;;108.57;45.40;;;;;;;0.85;100.00;101242.20;4982113;57;1142859;-84
2023/12/14 20:08:03;;;;;;;198.47;76.93;;;;;;;0.78;100.00;101246.69;4865420;57;1143004;-83
2023/12/14 20:13:12;;;;;;;182.27;76.40;;;;;;;0.82;100.00;101253.98;5118178;56;1142847;-79
2023/12/14 20:18:17;;;;;;;178.95;77.90;;;;;;;0.76;100.00;101258.06;5088733;56;1143138;-82
2023/12/14 20:23:23;;;;;;;177.20;73.55;;;;;;;0.84;100.00;101267.83;5096532;56;1143011;-83
2023/12/14 20:28:28;;;;;;;169.80;75.83;;;;;;;0.91;100.00;101261.13;5061462;56;1143292;-81
2023/12/14 20:33:34;;;;;;;363.00;112.60;;;;;;;1.00;100.00;101274.34;5064183;56;1143305;-83
2023/12/14 20:38:40;;;;;;;200.30;65.03;;;;;;;1.05;100.00;101271.19;5079195;56;1144804;-84
2023/12/14 20:43:46;;;;;;;340.80;100.63;;;;;;;1.05;100.00;101271.19;5102090;56;1143003;-82
2023/12/14 20:48:52;;;;;;;153.93;50.73;;;;;;;1.03;100.00;101270.37;5046169;56;1144956;-84
2023/12/14 20:53:57;;;;;;;167.70;56.50;;;;;;;0.97;100.00;101281.79;5067036;56;1143249;-82
2023/12/14 20:59:03;;;;;;;87.80;37.17;;;;;;;0.86;100.00;101292.94;5047061;56;1143117;-83
2023/12/14 21:04:08;;;;;;;73.37;31.70;;;;;;;0.77;100.00;101313.12;5124417;56;1140961;-83
2023/12/14 21:09:15;;;;;;;49.00;23.52;;;;;;;0.62;100.00;101319.11;5120162;56;1140985;-84
2023/12/14 21:14:20;;;;;;;47.90;21.00;;;;;;;0.54;100.00;101326.70;5041343;57;1140807;-83
2023/12/14 21:19:26;;;;;;;55.47;25.93;;;;;;;0.49;100.00;101341.11;5022737;57;1140764;-84
2023/12/14 21:24:32;;;;;;;51.87;22.53;;;;;;;0.46;100.00;101342.48;5012050;56;1140810;-84
2023/12/14 21:29:40;;;;;;;52.50;23.40;;;;;;;0.53;100.00;101342.77;5052720;57;1140957;-82
2023/12/14 21:34:45;;;;;;;50.30;23.30;;;;;;;0.69;100.00;101351.92;5035037;56;1140900;-82
2023/12/14 21:39:51;;;;;;;50.00;22.13;;;;;;;0.83;100.00;101366.36;5009090;56;1140833;-82
2023/12/14 21:44:57;;;;;;;40.30;20.40;;;;;;;0.85;100.00;101359.37;5035848;57;1140932;-83
2023/12/14 21:50:02;;;;;;;39.93;19.20;;;;;;;0.83;100.00;101355.95;5015579;56;1141074;-82
2023/12/14 21:55:08;;;;;;;41.73;18.03;;;;;;;0.81;100.00;101348.61;5021474;57;1140860;-82
2023/12/14 22:00:15;;;;;;;38.83;19.65;;;;;;;0.93;100.00;101353.07;5013186;56;1141108;-83
2023/12/14 22:05:21;;;;;;;98.25;37.53;;;;;;;1.01;100.00;101355.05;5034610;57;1141064;-83
2023/12/14 22:10:27;;;;;;;133.75;44.77;;;;;;;1.01;100.00;101361.56;4991483;57;1141071;-82
2023/12/14 22:15:32;;;;;;;67.93;31.70;;;;;;;1.04;100.00;101364.10;4939965;57;1143029;-83
2023/12/14 22:20:39;;;;;;;263.33;108.53;;;;;;;1.13;100.00;101377.77;4960052;57;1141006;-84
2023/12/14 22:25:45;;;;;;;135.50;56.70;;;;;;;1.02;100.00;101383.27;4948219;56;1144927;-83
2023/12/14 22:30:50;;;;;;;102.63;47.70;;;;;;;0.93;100.00;101382.16;4944491;57;1143079;-82
2023/12/14 22:35:56;;;;;;;52.33;26.70;;;;;;;0.86;100.00;101393.64;4970029;57;1143259;-84
2023/12/14 22:41:02;;;;;;;42.63;20.03;;;;;;;0.76;100.00;101398.66;4934425;57;1141004;-83